sensor_id;sensor_type;location;lat;lon;timestamp;pressure;altitude;pressure_sealevel;temperature;humidity
11710;BME280;5911;51.036;6.972;2023-05-29T00:02:19;101176.66;;;19.11;67.54
11710;BME280;5911;51.036;6.972;2023-05-29T00:04:46;101179.31;;;19.11;67.71
11710;BME280;5911;51.036;6.972;2023-05-29T00:07:16;101170.31;;;19.04;67.58
11710;BME280;5911;51.036;6.972;2023-05-29T00:09:44;101173.50;;;19.07;68.53
11710;BME280;5911;51.036;6.972;2023-05-29T00:12:11;101172.97;;;19.04;69.53
11710;BME280;5911;51.036;6.972;2023-05-29T00:14:41;101183.84;;;19.02;69.74
11710;BME280;5911;51.036;6.972;2023-05-29T00:17:09;101182.31;;;19.00;69.51
11710;BME280;5911;51.036;6.972;2023-05-29T00:19:39;101164.28;;;18.85;70.52
11710;BME280;5911;51.036;6.972;2023-05-29T00:22:06;101190.00;;;18.94;70.39
11710;BME280;5911;51.036;6.972;2023-05-29T00:24:34;101186.34;;;18.87;69.53
11710;BME280;5911;51.036;6.972;2023-05-29T00:27:02;101190.69;;;18.88;70.64
11710;BME280;5911;51.036;6.972;2023-05-29T00:29:30;101186.66;;;18.84;70.06
11710;BME280;5911;51.036;6.972;2023-05-29T00:31:59;101187.34;;;18.86;71.01
11710;BME280;5911;51.036;6.972;2023-05-29T00:34:27;101188.81;;;18.81;70.44
11710;BME280;5911;51.036;6.972;2023-05-29T00:36:55;101180.59;;;18.66;71.34
11710;BME280;5911;51.036;6.972;2023-05-29T00:39:23;101192.50;;;18.72;70.87
11710;BME280;5911;51.036;6.972;2023-05-29T00:41:51;101195.47;;;18.69;72.20
11710;BME280;5911;51.036;6.972;2023-05-29T00:44:19;101195.31;;;18.62;73.15
11710;BME280;5911;51.036;6.972;2023-05-29T00:46:48;101190.28;;;18.59;72.73
11710;BME280;5911;51.036;6.972;2023-05-29T00:49:19;101192.56;;;18.54;74.08
11710;BME280;5911;51.036;6.972;2023-05-29T00:51:48;101203.56;;;18.51;73.52
11710;BME280;5911;51.036;6.972;2023-05-29T00:54:21;101192.19;;;18.41;72.78
11710;BME280;5911;51.036;6.972;2023-05-29T00:56:49;101197.53;;;18.41;73.37
11710;BME280;5911;51.036;6.972;2023-05-29T00:59:17;101190.00;;;18.36;72.77
11710;BME280;5911;51.036;6.972;2023-05-29T01:01:47;101195.50;;;18.35;72.67
11710;BME280;5911;51.036;6.972;2023-05-29T01:04:18;101183.44;;;18.22;72.05
11710;BME280;5911;51.036;6.972;2023-05-29T01:06:47;101205.53;;;18.33;72.52
11710;BME280;5911;51.036;6.972;2023-05-29T01:09:15;101195.69;;;18.33;73.60
11710;BME280;5911;51.036;6.972;2023-05-29T01:11:51;101197.34;;;18.34;73.44
11710;BME280;5911;51.036;6.972;2023-05-29T01:14:28;101199.84;;;18.36;74.23
11710;BME280;5911;51.036;6.972;2023-05-29T01:17:01;101202.03;;;18.32;73.10
11710;BME280;5911;51.036;6.972;2023-05-29T01:19:48;101200.50;;;18.30;74.41
11710;BME280;5911;51.036;6.972;2023-05-29T01:22:35;101199.69;;;18.29;73.98
11710;BME280;5911;51.036;6.972;2023-05-29T01:25:11;101200.63;;;18.20;72.47
11710;BME280;5911;51.036;6.972;2023-05-29T01:27:46;101199.75;;;18.11;71.84
11710;BME280;5911;51.036;6.972;2023-05-29T01:30:15;101204.72;;;18.06;71.38
11710;BME280;5911;51.036;6.972;2023-05-29T01:32:43;101209.91;;;18.08;71.95
11710;BME280;5911;51.036;6.972;2023-05-29T01:35:13;101211.06;;;18.05;71.73
11710;BME280;5911;51.036;6.972;2023-05-29T01:37:41;101210.38;;;18.03;70.82
11710;BME280;5911;51.036;6.972;2023-05-29T01:40:10;101221.72;;;17.97;71.41
11710;BME280;5911;51.036;6.972;2023-05-29T01:42:38;101220.34;;;17.93;70.13
11710;BME280;5911;51.036;6.972;2023-05-29T01:45:09;101213.66;;;17.89;70.65
11710;BME280;5911;51.036;6.972;2023-05-29T01:47:37;101226.84;;;17.90;69.65
11710;BME280;5911;51.036;6.972;2023-05-29T01:50:06;101230.34;;;17.91;70.01
11710;BME280;5911;51.036;6.972;2023-05-29T01:52:34;101231.50;;;17.88;69.13
11710;BME280;5911;51.036;6.972;2023-05-29T01:55:03;101231.97;;;17.84;68.12
11710;BME280;5911;51.036;6.972;2023-05-29T01:57:31;101238.47;;;17.81;67.82
11710;BME280;5911;51.036;6.972;2023-05-29T01:59:59;101228.78;;;17.80;68.60
11710;BME280;5911;51.036;6.972;2023-05-29T02:02:28;101229.63;;;17.81;68.71
11710;BME280;5911;51.036;6.972;2023-05-29T02:04:55;101239.78;;;17.77;68.51
11710;BME280;5911;51.036;6.972;2023-05-29T02:07:23;101239.91;;;17.76;68.45
11710;BME280;5911;51.036;6.972;2023-05-29T02:09:51;101242.53;;;17.68;68.71
11710;BME280;5911;51.036;6.972;2023-05-29T02:12:19;101245.56;;;17.73;70.58
11710;BME280;5911;51.036;6.972;2023-05-29T02:14:46;101245.91;;;17.70;70.31
11710;BME280;5911;51.036;6.972;2023-05-29T02:17:14;101257.19;;;17.64;69.66
11710;BME280;5911;51.036;6.972;2023-05-29T02:19:44;101263.63;;;17.61;69.51
11710;BME280;5911;51.036;6.972;2023-05-29T02:22:12;101262.25;;;17.57;70.02
11710;BME280;5911;51.036;6.972;2023-05-29T02:24:40;101258.09;;;17.54;69.40
11710;BME280;5911;51.036;6.972;2023-05-29T02:27:08;101262.44;;;17.55;69.95
11710;BME280;5911;51.036;6.972;2023-05-29T02:29:36;101268.75;;;17.54;70.02
11710;BME280;5911;51.036;6.972;2023-05-29T02:32:04;101265.56;;;17.51;69.62
11710;BME280;5911;51.036;6.972;2023-05-29T02:34:32;101270.50;;;17.46;69.82
11710;BME280;5911;51.036;6.972;2023-05-29T02:37:01;101266.94;;;17.37;69.97
11710;BME280;5911;51.036;6.972;2023-05-29T02:39:30;101266.94;;;17.37;70.23
11710;BME280;5911;51.036;6.972;2023-05-29T02:41:58;101269.53;;;17.29;69.60
11710;BME280;5911;51.036;6.972;2023-05-29T02:44:25;101268.53;;;17.30;69.53
11710;BME280;5911;51.036;6.972;2023-05-29T02:46:53;101269.53;;;17.29;69.68
11710;BME280;5911;51.036;6.972;2023-05-29T02:49:21;101270.66;;;17.27;70.23
11710;BME280;5911;51.036;6.972;2023-05-29T02:51:51;101265.94;;;17.20;71.04
11710;BME280;5911;51.036;6.972;2023-05-29T02:54:24;101266.25;;;17.17;71.18
11710;BME280;5911;51.036;6.972;2023-05-29T02:56:52;101268.38;;;17.14;71.05
11710;BME280;5911;51.036;6.972;2023-05-29T02:59:20;101268.38;;;17.14;71.05
11710;BME280;5911;51.036;6.972;2023-05-29T03:01:47;101261.38;;;17.13;71.65
11710;BME280;5911;51.036;6.972;2023-05-29T03:04:16;101272.25;;;17.02;71.72
11710;BME280;5911;51.036;6.972;2023-05-29T03:06:44;101270.28;;;17.04;71.76
11710;BME280;5911;51.036;6.972;2023-05-29T03:09:13;101268.91;;;17.00;72.31
11710;BME280;5911;51.036;6.972;2023-05-29T03:11:44;101273.53;;;16.98;72.22
11710;BME280;5911;51.036;6.972;2023-05-29T03:14:14;101275.53;;;16.96;72.49
11710;BME280;5911;51.036;6.972;2023-05-29T03:16:42;101273.69;;;16.96;73.34
11710;BME280;5911;51.036;6.972;2023-05-29T03:19:10;101274.53;;;16.97;73.53
11710;BME280;5911;51.036;6.972;2023-05-29T03:21:38;101285.19;;;16.97;73.64
11710;BME280;5911;51.036;6.972;2023-05-29T03:24:06;101274.75;;;16.85;73.06
11710;BME280;5911;51.036;6.972;2023-05-29T03:26:35;101274.06;;;16.83;73.26
11710;BME280;5911;51.036;6.972;2023-05-29T03:29:05;101280.28;;;16.74;73.91
11710;BME280;5911;51.036;6.972;2023-05-29T03:31:34;101285.31;;;16.77;73.98
11710;BME280;5911;51.036;6.972;2023-05-29T03:34:01;101277.91;;;16.71;74.35
11710;BME280;5911;51.036;6.972;2023-05-29T03:36:40;101280.56;;;16.71;74.41
11710;BME280;5911;51.036;6.972;2023-05-29T03:39:07;101279.88;;;16.69;74.98
11710;BME280;5911;51.036;6.972;2023-05-29T03:41:35;101276.94;;;16.72;74.84
11710;BME280;5911;51.036;6.972;2023-05-29T03:44:05;101282.00;;;16.66;74.34
11710;BME280;5911;51.036;6.972;2023-05-29T03:46:33;101277.09;;;16.61;74.03
11710;BME280;5911;51.036;6.972;2023-05-29T03:49:01;101269.25;;;16.60;74.58
11710;BME280;5911;51.036;6.972;2023-05-29T03:51:30;101271.94;;;16.60;74.74
11710;BME280;5911;51.036;6.972;2023-05-29T03:53:58;101279.50;;;16.64;75.06
11710;BME280;5911;51.036;6.972;2023-05-29T03:56:26;101291.25;;;16.62;74.97
11710;BME280;5911;51.036;6.972;2023-05-29T03:58:54;101290.72;;;16.58;74.90
11710;BME280;5911;51.036;6.972;2023-05-29T04:01:24;101297.16;;;16.56;74.64
11710;BME280;5911;51.036;6.972;2023-05-29T04:03:53;101292.44;;;16.49;75.32
11710;BME280;5911;51.036;6.972;2023-05-29T04:06:22;101303.25;;;16.48;75.76
11710;BME280;5911;51.036;6.972;2023-05-29T04:08:50;101296.09;;;16.48;75.87
11710;BME280;5911;51.036;6.972;2023-05-29T04:11:18;101301.94;;;16.52;76.74
11710;BME280;5911;51.036;6.972;2023-05-29T04:13:47;101294.94;;;16.51;75.75
11710;BME280;5911;51.036;6.972;2023-05-29T04:16:15;101299.88;;;16.46;75.61
11710;BME280;5911;51.036;6.972;2023-05-29T04:18:44;101295.53;;;16.45;75.35
11710;BME280;5911;51.036;6.972;2023-05-29T04:21:12;101295.53;;;16.45;75.64
11710;BME280;5911;51.036;6.972;2023-05-29T04:23:40;101296.41;;;16.36;75.85
11710;BME280;5911;51.036;6.972;2023-05-29T04:26:09;101286.59;;;16.36;75.75
11710;BME280;5911;51.036;6.972;2023-05-29T04:28:37;101305.50;;;16.43;76.63
11710;BME280;5911;51.036;6.972;2023-05-29T04:31:06;101307.97;;;16.54;77.34
11710;BME280;5911;51.036;6.972;2023-05-29T04:33:35;101311.31;;;16.56;77.51
11710;BME280;5911;51.036;6.972;2023-05-29T04:36:06;101315.97;;;16.64;77.60
11710;BME280;5911;51.036;6.972;2023-05-29T04:38:36;101317.34;;;16.58;77.33
11710;BME280;5911;51.036;6.972;2023-05-29T04:41:04;101319.88;;;16.50;77.55
11710;BME280;5911;51.036;6.972;2023-05-29T04:43:35;101326.31;;;16.57;78.09
11710;BME280;5911;51.036;6.972;2023-05-29T04:46:05;101326.47;;;16.56;78.42
11710;BME280;5911;51.036;6.972;2023-05-29T04:48:35;101328.28;;;16.55;79.48
11710;BME280;5911;51.036;6.972;2023-05-29T04:51:08;101325.50;;;16.57;78.96
11710;BME280;5911;51.036;6.972;2023-05-29T04:53:38;101333.91;;;16.52;78.75
11710;BME280;5911;51.036;6.972;2023-05-29T04:56:07;101331.66;;;16.57;79.44
11710;BME280;5911;51.036;6.972;2023-05-29T04:58:35;101328.28;;;16.55;79.45
11710;BME280;5911;51.036;6.972;2023-05-29T05:01:03;101333.63;;;16.55;78.02
11710;BME280;5911;51.036;6.972;2023-05-29T05:03:32;101325.19;;;16.60;79.03
11710;BME280;5911;51.036;6.972;2023-05-29T05:06:01;101333.19;;;16.60;79.55
11710;BME280;5911;51.036;6.972;2023-05-29T05:08:32;101336.97;;;16.57;79.25
11710;BME280;5911;51.036;6.972;2023-05-29T05:11:02;101330.66;;;16.58;79.06
11710;BME280;5911;51.036;6.972;2023-05-29T05:13:29;101330.53;;;16.60;79.81
11710;BME280;5911;51.036;6.972;2023-05-29T05:15:57;101332.09;;;16.52;79.60
11710;BME280;5911;51.036;6.972;2023-05-29T05:18:27;101341.63;;;16.65;80.43
11710;BME280;5911;51.036;6.972;2023-05-29T05:21:00;101344.13;;;16.57;79.56
11710;BME280;5911;51.036;6.972;2023-05-29T05:23:32;101341.47;;;16.57;78.82
11710;BME280;5911;51.036;6.972;2023-05-29T05:26:14;101339.34;;;16.60;80.07
11710;BME280;5911;51.036;6.972;2023-05-29T05:28:43;101342.88;;;16.61;78.94
11710;BME280;5911;51.036;6.972;2023-05-29T05:31:11;101343.44;;;16.54;77.29
11710;BME280;5911;51.036;6.972;2023-05-29T05:33:39;101351.00;;;16.59;78.49
11710;BME280;5911;51.036;6.972;2023-05-29T05:36:06;101350.31;;;16.57;77.94
11710;BME280;5911;51.036;6.972;2023-05-29T05:38:38;101356.47;;;16.58;77.43
11710;BME280;5911;51.036;6.972;2023-05-29T05:41:06;101360.81;;;16.59;77.67
11710;BME280;5911;51.036;6.972;2023-05-29T05:43:34;101358.69;;;16.62;77.39
11710;BME280;5911;51.036;6.972;2023-05-29T05:46:09;101364.03;;;16.62;76.98
11710;BME280;5911;51.036;6.972;2023-05-29T05:48:40;101365.00;;;16.61;77.71
11710;BME280;5911;51.036;6.972;2023-05-29T05:51:08;101355.19;;;16.62;78.90
11710;BME280;5911;51.036;6.972;2023-05-29T05:53:39;101362.75;;;16.66;77.32
11710;BME280;5911;51.036;6.972;2023-05-29T05:56:07;101368.09;;;16.66;77.10
11710;BME280;5911;51.036;6.972;2023-05-29T05:58:35;101357.75;;;16.63;77.04
11710;BME280;5911;51.036;6.972;2023-05-29T06:01:03;101361.38;;;16.62;76.43
11710;BME280;5911;51.036;6.972;2023-05-29T06:03:31;101359.13;;;16.67;77.43
11710;BME280;5911;51.036;6.972;2023-05-29T06:06:02;101356.16;;;16.70;77.03
11710;BME280;5911;51.036;6.972;2023-05-29T06:08:32;101358.94;;;16.78;79.18
11710;BME280;5911;51.036;6.972;2023-05-29T06:11:01;101361.06;;;16.75;77.87
11710;BME280;5911;51.036;6.972;2023-05-29T06:13:33;101367.81;;;16.69;75.79
11710;BME280;5911;51.036;6.972;2023-05-29T06:16:08;101373.13;;;16.69;75.24
11710;BME280;5911;51.036;6.972;2023-05-29T06:18:37;101376.78;;;16.68;74.82
11710;BME280;5911;51.036;6.972;2023-05-29T06:21:05;101374.53;;;16.73;76.15
11710;BME280;5911;51.036;6.972;2023-05-29T06:23:34;101378.19;;;16.72;74.58
11710;BME280;5911;51.036;6.972;2023-05-29T06:26:04;101379.84;;;16.73;75.78
11710;BME280;5911;51.036;6.972;2023-05-29T06:28:32;101384.44;;;16.81;77.26
11710;BME280;5911;51.036;6.972;2023-05-29T06:31:00;101385.75;;;16.77;74.74
11710;BME280;5911;51.036;6.972;2023-05-29T06:33:28;101379.44;;;16.78;75.17
11710;BME280;5911;51.036;6.972;2023-05-29T06:35:57;101374.25;;;16.76;75.93
11710;BME280;5911;51.036;6.972;2023-05-29T06:38:30;101369.91;;;16.75;75.72
11710;BME280;5911;51.036;6.972;2023-05-29T06:41:01;101380.94;;;16.80;76.14
11710;BME280;5911;51.036;6.972;2023-05-29T06:43:30;101388.75;;;16.92;78.39
11710;BME280;5911;51.036;6.972;2023-05-29T06:46:01;101383.44;;;16.92;77.28
11710;BME280;5911;51.036;6.972;2023-05-29T06:48:32;101381.47;;;16.94;76.13
11710;BME280;5911;51.036;6.972;2023-05-29T06:51:00;101383.16;;;16.95;77.00
11710;BME280;5911;51.036;6.972;2023-05-29T06:53:39;101383.66;;;16.98;76.64
11710;BME280;5911;51.036;6.972;2023-05-29T06:56:10;101380.00;;;16.99;76.79
11710;BME280;5911;51.036;6.972;2023-05-29T06:58:39;101386.88;;;17.02;75.51
11710;BME280;5911;51.036;6.972;2023-05-29T07:01:07;101386.88;;;17.02;76.55
11710;BME280;5911;51.036;6.972;2023-05-29T07:03:39;101392.63;;;17.07;77.95
11710;BME280;5911;51.036;6.972;2023-05-29T07:06:07;101388.41;;;17.04;75.52
11710;BME280;5911;51.036;6.972;2023-05-29T07:08:35;101389.25;;;17.05;75.51
11710;BME280;5911;51.036;6.972;2023-05-29T07:11:03;101383.34;;;17.11;77.49
11710;BME280;5911;51.036;6.972;2023-05-29T07:13:30;101387.22;;;17.16;79.03
11710;BME280;5911;51.036;6.972;2023-05-29T07:15:59;101382.44;;;17.20;78.55
11710;BME280;5911;51.036;6.972;2023-05-29T07:18:43;101385.50;;;17.25;78.93
11710;BME280;5911;51.036;6.972;2023-05-29T07:21:14;101365.59;;;17.19;77.23
11710;BME280;5911;51.036;6.972;2023-05-29T07:23:42;101385.72;;;17.32;78.10
11710;BME280;5911;51.036;6.972;2023-05-29T07:26:10;101384.19;;;17.29;76.11
11710;BME280;5911;51.036;6.972;2023-05-29T07:28:39;101385.44;;;17.35;76.41
11710;BME280;5911;51.036;6.972;2023-05-29T07:31:09;101394.97;;;17.37;74.87
11710;BME280;5911;51.036;6.972;2023-05-29T07:33:39;101386.69;;;17.40;75.80
11710;BME280;5911;51.036;6.972;2023-05-29T07:36:15;101390.41;;;17.47;76.39
11710;BME280;5911;51.036;6.972;2023-05-29T07:38:43;101386.75;;;17.48;76.61
11710;BME280;5911;51.036;6.972;2023-05-29T07:41:15;101385.47;;;17.52;77.36
11710;BME280;5911;51.036;6.972;2023-05-29T07:43:50;101392.78;;;17.50;77.14
11710;BME280;5911;51.036;6.972;2023-05-29T07:46:21;101391.78;;;17.51;75.44
11710;BME280;5911;51.036;6.972;2023-05-29T07:48:57;101395.44;;;17.50;75.99
11710;BME280;5911;51.036;6.972;2023-05-29T07:51:28;101389.72;;;17.45;75.53
11710;BME280;5911;51.036;6.972;2023-05-29T07:53:57;101401.31;;;17.54;75.84
11710;BME280;5911;51.036;6.972;2023-05-29T07:56:25;101403.50;;;17.58;76.31
11710;BME280;5911;51.036;6.972;2023-05-29T07:58:55;101410.97;;;17.65;74.84
11710;BME280;5911;51.036;6.972;2023-05-29T08:01:24;101410.50;;;17.69;75.84
11710;BME280;5911;51.036;6.972;2023-05-29T08:03:52;101410.88;;;17.74;75.94
11710;BME280;5911;51.036;6.972;2023-05-29T08:06:29;101410.72;;;17.76;77.17
11710;BME280;5911;51.036;6.972;2023-05-29T08:08:59;101407.06;;;17.77;77.72
11710;BME280;5911;51.036;6.972;2023-05-29T08:11:28;101406.31;;;17.84;76.88
11710;BME280;5911;51.036;6.972;2023-05-29T08:13:57;101416.84;;;17.86;75.64
11710;BME280;5911;51.036;6.972;2023-05-29T08:16:27;101408.16;;;17.84;74.80
11710;BME280;5911;51.036;6.972;2023-05-29T08:18:55;101416.59;;;17.97;77.68
11710;BME280;5911;51.036;6.972;2023-05-29T08:21:22;101420.41;;;17.95;77.62
11710;BME280;5911;51.036;6.972;2023-05-29T08:23:50;101414.09;;;17.96;76.90
11710;BME280;5911;51.036;6.972;2023-05-29T08:26:18;101414.09;;;17.96;74.46
11710;BME280;5911;51.036;6.972;2023-05-29T08:28:47;101418.97;;;18.00;74.78
11710;BME280;5911;51.036;6.972;2023-05-29T08:31:14;101413.00;;;18.06;77.05
11710;BME280;5911;51.036;6.972;2023-05-29T08:33:44;101411.66;;;18.02;74.95
11710;BME280;5911;51.036;6.972;2023-05-29T08:36:12;101412.69;;;18.09;76.40
11710;BME280;5911;51.036;6.972;2023-05-29T08:38:39;101405.38;;;18.11;77.29
11710;BME280;5911;51.036;6.972;2023-05-29T08:41:07;101394.69;;;18.11;76.63
11710;BME280;5911;51.036;6.972;2023-05-29T08:43:41;101403.09;;;18.16;73.54
11710;BME280;5911;51.036;6.972;2023-05-29T08:46:09;101410.31;;;18.24;74.72
11710;BME280;5911;51.036;6.972;2023-05-29T08:48:40;101410.84;;;18.27;75.93
11710;BME280;5911;51.036;6.972;2023-05-29T08:51:15;101410.69;;;18.29;75.88
11710;BME280;5911;51.036;6.972;2023-05-29T08:53:43;101410.53;;;18.31;75.16
11710;BME280;5911;51.036;6.972;2023-05-29T08:56:11;101420.09;;;18.33;73.52
11710;BME280;5911;51.036;6.972;2023-05-29T08:59:00;101427.31;;;18.41;73.97
11710;BME280;5911;51.036;6.972;2023-05-29T09:01:33;101415.25;;;18.37;73.23
11710;BME280;5911;51.036;6.972;2023-05-29T09:04:03;101424.78;;;18.39;73.97
11710;BME280;5911;51.036;6.972;2023-05-29T09:06:32;101411.66;;;18.46;73.05
11710;BME280;5911;51.036;6.972;2023-05-29T09:09:00;101405.66;;;18.52;72.32
11710;BME280;5911;51.036;6.972;2023-05-29T09:11:28;101406.75;;;18.59;72.41
11710;BME280;5911;51.036;6.972;2023-05-29T09:13:56;101407.09;;;18.64;73.20
11710;BME280;5911;51.036;6.972;2023-05-29T09:16:24;101414.34;;;18.72;72.46
11710;BME280;5911;51.036;6.972;2023-05-29T09:18:52;101409.47;;;18.67;74.18
11710;BME280;5911;51.036;6.972;2023-05-29T09:21:27;101407.16;;;18.72;73.07
11710;BME280;5911;51.036;6.972;2023-05-29T09:24:03;101411.19;;;18.76;72.23
11710;BME280;5911;51.036;6.972;2023-05-29T09:26:31;101412.22;;;18.83;71.29
11710;BME280;5911;51.036;6.972;2023-05-29T09:29:00;101409.91;;;18.88;70.58
11710;BME280;5911;51.036;6.972;2023-05-29T09:31:29;101403.91;;;18.94;71.85
11710;BME280;5911;51.036;6.972;2023-05-29T09:34:01;101405.97;;;19.01;71.58
11710;BME280;5911;51.036;6.972;2023-05-29T09:36:29;101411.16;;;19.02;70.27
11710;BME280;5911;51.036;6.972;2023-05-29T09:39:03;101419.84;;;19.04;70.62
11710;BME280;5911;51.036;6.972;2023-05-29T09:41:43;101422.56;;;19.12;73.33
11710;BME280;5911;51.036;6.972;2023-05-29T09:44:12;101422.22;;;19.15;72.14
11710;BME280;5911;51.036;6.972;2023-05-29T09:46:40;101423.97;;;19.24;73.34
11710;BME280;5911;51.036;6.972;2023-05-29T09:49:11;101426.81;;;19.31;75.39
11710;BME280;5911;51.036;6.972;2023-05-29T09:51:40;101421.13;;;19.34;72.36
11710;BME280;5911;51.036;6.972;2023-05-29T09:54:17;101429.31;;;19.32;72.15
11710;BME280;5911;51.036;6.972;2023-05-29T09:56:46;101427.50;;;19.33;71.41
11710;BME280;5911;51.036;6.972;2023-05-29T09:59:15;101418.31;;;19.36;72.35
11710;BME280;5911;51.036;6.972;2023-05-29T10:01:47;101423.19;;;19.48;71.73
11710;BME280;5911;51.036;6.972;2023-05-29T10:04:15;101422.22;;;19.49;69.48
11710;BME280;5911;51.036;6.972;2023-05-29T10:06:45;101419.53;;;19.49;70.15
11710;BME280;5911;51.036;6.972;2023-05-29T10:09:19;101422.22;;;19.57;69.75
11710;BME280;5911;51.036;6.972;2023-05-29T10:11:49;101413.19;;;19.58;72.53
11710;BME280;5911;51.036;6.972;2023-05-29T10:14:20;101425.44;;;19.77;72.14
11710;BME280;5911;51.036;6.972;2023-05-29T10:16:50;101427.97;;;19.79;69.43
11710;BME280;5911;51.036;6.972;2023-05-29T10:19:25;101421.28;;;19.83;68.21
11710;BME280;5911;51.036;6.972;2023-05-29T10:21:54;101429.31;;;19.91;69.71
11710;BME280;5911;51.036;6.972;2023-05-29T10:24:25;101424.16;;;19.97;68.37
11710;BME280;5911;51.036;6.972;2023-05-29T10:26:55;101424.47;;;20.02;68.19
11710;BME280;5911;51.036;6.972;2023-05-29T10:29:28;101424.47;;;20.11;67.10
11710;BME280;5911;51.036;6.972;2023-05-29T10:32:17;101423.47;;;20.20;67.74
11710;BME280;5911;51.036;6.972;2023-05-29T10:34:52;101423.97;;;20.31;67.14
11710;BME280;5911;51.036;6.972;2023-05-29T10:37:31;101428.31;;;20.49;69.34
11710;BME280;5911;51.036;6.972;2023-05-29T10:40:06;101426.78;;;20.70;67.98
11710;BME280;5911;51.036;6.972;2023-05-29T10:42:43;101424.50;;;20.98;66.22
11710;BME280;5911;51.036;6.972;2023-05-29T10:45:49;101426.53;;;21.44;64.00
11710;BME280;5911;51.036;6.972;2023-05-29T10:48:49;101424.97;;;21.80;62.34
11710;BME280;5911;51.036;6.972;2023-05-29T10:51:27;101410.53;;;22.04;61.34
11710;BME280;5911;51.036;6.972;2023-05-29T10:53:57;101427.56;;;22.34;60.49
11710;BME280;5911;51.036;6.972;2023-05-29T10:56:29;101442.09;;;22.62;59.21
11710;BME280;5911;51.036;6.972;2023-05-29T10:58:59;101435.84;;;22.85;57.82
11710;BME280;5911;51.036;6.972;2023-05-29T11:01:29;101430.28;;;23.01;56.56
11710;BME280;5911;51.036;6.972;2023-05-29T11:04:25;101423.91;;;23.23;56.57
11710;BME280;5911;51.036;6.972;2023-05-29T11:06:55;101429.94;;;23.40;55.44
11710;BME280;5911;51.036;6.972;2023-05-29T11:09:28;101415.56;;;23.33;54.04
11710;BME280;5911;51.036;6.972;2023-05-29T11:12:16;101397.81;;;23.24;54.84
11710;BME280;5911;51.036;6.972;2023-05-29T11:14:54;101419.56;;;23.37;54.55
11710;BME280;5911;51.036;6.972;2023-05-29T11:17:29;101426.94;;;23.64;54.72
11710;BME280;5911;51.036;6.972;2023-05-29T11:20:01;101425.91;;;23.87;54.28
11710;BME280;5911;51.036;6.972;2023-05-29T11:22:53;101428.22;;;24.11;53.91
11710;BME280;5911;51.036;6.972;2023-05-29T11:25:24;101405.97;;;24.24;53.07
11710;BME280;5911;51.036;6.972;2023-05-29T11:27:53;101415.63;;;24.39;52.69
11710;BME280;5911;51.036;6.972;2023-05-29T11:30:21;101403.72;;;24.55;52.55
11710;BME280;5911;51.036;6.972;2023-05-29T11:32:49;101403.72;;;24.62;51.75
11710;BME280;5911;51.036;6.972;2023-05-29T11:35:22;101407.59;;;24.80;50.56
11710;BME280;5911;51.036;6.972;2023-05-29T11:37:49;101407.09;;;24.98;50.06
11710;BME280;5911;51.036;6.972;2023-05-29T11:40:17;101409.84;;;25.05;50.20
11710;BME280;5911;51.036;6.972;2023-05-29T11:42:46;101413.19;;;25.13;48.33
11710;BME280;5911;51.036;6.972;2023-05-29T11:45:17;101419.19;;;25.09;48.30
11710;BME280;5911;51.036;6.972;2023-05-29T11:47:54;101414.06;;;25.27;49.09
11710;BME280;5911;51.036;6.972;2023-05-29T11:50:23;101399.78;;;25.40;48.56
11710;BME280;5911;51.036;6.972;2023-05-29T11:52:51;101388.16;;;25.46;49.07
11710;BME280;5911;51.036;6.972;2023-05-29T11:55:20;101399.06;;;25.72;48.42
11710;BME280;5911;51.036;6.972;2023-05-29T11:57:48;101405.09;;;25.87;47.67
11710;BME280;5911;51.036;6.972;2023-05-29T12:00:18;101408.84;;;25.86;47.11
11710;BME280;5911;51.036;6.972;2023-05-29T12:02:46;101400.09;;;25.84;46.72
11710;BME280;5911;51.036;6.972;2023-05-29T12:05:16;101402.41;;;25.87;46.77
11710;BME280;5911;51.036;6.972;2023-05-29T12:07:50;101404.72;;;25.97;46.74
11710;BME280;5911;51.036;6.972;2023-05-29T12:10:19;101407.63;;;26.02;46.19
11710;BME280;5911;51.036;6.972;2023-05-29T12:12:48;101393.47;;;26.00;45.33
11710;BME280;5911;51.036;6.972;2023-05-29T12:15:17;101399.09;;;26.05;44.97
11710;BME280;5911;51.036;6.972;2023-05-29T12:17:46;101393.06;;;26.10;46.12
11710;BME280;5911;51.036;6.972;2023-05-29T12:20:14;101397.66;;;26.29;45.72
11710;BME280;5911;51.036;6.972;2023-05-29T12:22:44;101399.72;;;26.47;45.45
11710;BME280;5911;51.036;6.972;2023-05-29T12:25:13;101397.19;;;26.65;45.43
11710;BME280;5911;51.036;6.972;2023-05-29T12:27:43;101391.94;;;26.77;44.59
11710;BME280;5911;51.036;6.972;2023-05-29T12:30:13;101403.41;;;26.79;44.94
11710;BME280;5911;51.036;6.972;2023-05-29T12:32:55;101412.34;;;26.79;43.57
11710;BME280;5911;51.036;6.972;2023-05-29T12:35:24;101407.56;;;26.88;43.57
11710;BME280;5911;51.036;6.972;2023-05-29T12:37:55;101409.81;;;26.91;43.73
11710;BME280;5911;51.036;6.972;2023-05-29T12:40:23;101406.06;;;26.92;43.44
11710;BME280;5911;51.036;6.972;2023-05-29T12:42:54;101411.72;;;26.97;44.09
11710;BME280;5911;51.036;6.972;2023-05-29T12:45:24;101412.09;;;27.07;42.95
11710;BME280;5911;51.036;6.972;2023-05-29T12:47:54;101407.91;;;27.05;42.64
11710;BME280;5911;51.036;6.972;2023-05-29T12:50:25;101411.25;;;27.13;42.93
11710;BME280;5911;51.036;6.972;2023-05-29T12:52:54;101395.47;;;26.97;42.10
11710;BME280;5911;51.036;6.972;2023-05-29T12:55:22;101402.56;;;26.85;42.88
11710;BME280;5911;51.036;6.972;2023-05-29T12:57:51;101411.31;;;26.74;42.90
11710;BME280;5911;51.036;6.972;2023-05-29T13:00:20;101411.72;;;26.97;42.97
11710;BME280;5911;51.036;6.972;2023-05-29T13:02:48;101407.91;;;27.11;42.26
11710;BME280;5911;51.036;6.972;2023-05-29T13:05:17;101403.66;;;27.28;42.00
11710;BME280;5911;51.036;6.972;2023-05-29T13:07:51;101408.59;;;27.38;41.83
11710;BME280;5911;51.036;6.972;2023-05-29T13:10:19;101413.97;;;27.58;41.99
11710;BME280;5911;51.036;6.972;2023-05-29T13:12:48;101419.31;;;27.71;41.36
11710;BME280;5911;51.036;6.972;2023-05-29T13:15:21;101412.41;;;27.75;42.02
11710;BME280;5911;51.036;6.972;2023-05-29T13:17:49;101414.06;;;27.76;40.90